Time;durP1;ratioP1;P1;durP2;ratioP2;P2;SDS_P1;SDS_P2;PMS_P1;PMS_P2;Temp;Humidity;BMP_temperature;BMP_pressure;BME280_temperature;BME280_humidity;BME280_pressure;Samples;Min_cycle;Max_cycle;Signal;HPM_P1;HPM_P2
2022/02/22 00:01:38;;;;;;;0.65;0.40;;;21.00;44.50;;;;;;4995325;28;20034;-68
2022/02/22 00:04:04;;;;;;;2.33;0.68;;;21.00;44.40;;;;;;5001241;28;20030;-65
2022/02/22 00:06:29;;;;;;;1.33;0.80;;;20.90;44.40;;;;;;4997683;28;20639;-65
2022/02/22 00:08:55;;;;;;;1.27;0.60;;;21.00;44.50;;;;;;4997311;28;20041;-68
2022/02/22 00:11:22;;;;;;;0.90;0.50;;;20.90;44.40;;;;;;4995426;28;20044;-65
2022/02/22 00:13:48;;;;;;;0.68;0.40;;;20.90;44.40;;;;;;5010624;28;20026;-65
2022/02/22 00:16:14;;;;;;;0.70;0.40;;;20.90;44.40;;;;;;4995295;28;20604;-65
2022/02/22 00:18:39;;;;;;;0.95;0.50;;;20.90;44.40;;;;;;4992984;28;20018;-65
2022/02/22 00:21:06;;;;;;;1.83;0.52;;;20.90;44.50;;;;;;4996193;28;20402;-68
2022/02/22 00:23:31;;;;;;;1.55;0.60;;;20.90;44.50;;;;;;4996635;28;20534;-65
2022/02/22 00:25:57;;;;;;;1.88;0.50;;;20.90;44.50;;;;;;4995847;28;20168;-67
2022/02/22 00:28:23;;;;;;;0.45;0.35;;;20.90;44.50;;;;;;4995937;28;20121;-66
2022/02/22 00:30:49;;;;;;;0.77;0.50;;;20.90;44.50;;;;;;4992560;28;20039;-67
2022/02/22 00:33:16;;;;;;;0.52;0.47;;;20.80;44.50;;;;;;4995294;28;20289;-68
2022/02/22 00:35:42;;;;;;;0.60;0.50;;;20.90;44.50;;;;;;4996420;28;20249;-67
2022/02/22 00:38:08;;;;;;;0.82;0.50;;;20.80;44.40;;;;;;4997011;28;20517;-68
2022/02/22 00:40:34;;;;;;;0.63;0.50;;;20.80;44.50;;;;;;4996073;28;20025;-65
2022/02/22 00:43:00;;;;;;;1.42;0.60;;;20.80;44.50;;;;;;5010393;28;20022;-67
2022/02/22 00:45:26;;;;;;;1.10;0.55;;;20.80;44.50;;;;;;5009996;28;20037;-68
2022/02/22 00:47:52;;;;;;;1.13;0.60;;;20.80;44.50;;;;;;4994375;28;20406;-68
2022/02/22 00:50:18;;;;;;;1.08;0.60;;;20.80;44.50;;;;;;4994605;28;20034;-65
2022/02/22 00:52:44;;;;;;;1.48;0.52;;;20.80;44.50;;;;;;4995461;28;20033;-65
2022/02/22 00:55:10;;;;;;;0.75;0.52;;;20.80;44.50;;;;;;4996559;28;20029;-68
2022/02/22 00:57:37;;;;;;;0.40;0.40;;;20.80;44.50;;;;;;4995241;28;20042;-67
2022/02/22 01:00:04;;;;;;;1.23;0.60;;;20.80;45.10;;;;;;4993808;28;20100;-69
2022/02/22 01:02:30;;;;;;;0.63;0.47;;;20.70;44.50;;;;;;4993583;28;20038;-69
2022/02/22 01:04:56;;;;;;;0.63;0.50;;;20.70;44.50;;;;;;4995680;28;20091;-68
2022/02/22 01:07:21;;;;;;;0.98;0.50;;;20.70;44.50;;;;;;4997267;28;20042;-66
2022/02/22 01:09:47;;;;;;;1.08;0.50;;;20.70;44.50;;;;;;4996991;28;20065;-69
2022/02/22 01:12:15;;;;;;;1.25;0.70;;;20.70;44.50;;;;;;4994819;28;20087;-65
2022/02/22 01:14:41;;;;;;;0.70;0.45;;;20.70;44.50;;;;;;5009783;28;20479;-65
2022/02/22 01:17:07;;;;;;;1.65;0.52;;;20.70;44.50;;;;;;4995544;28;20037;-65
2022/02/22 01:19:33;;;;;;;0.80;0.40;;;20.70;44.50;;;;;;4994519;28;20038;-66
2022/02/22 01:21:59;;;;;;;1.33;0.60;;;20.60;44.50;;;;;;4996642;28;20398;-66
2022/02/22 01:24:25;;;;;;;0.73;0.50;;;20.70;44.50;;;;;;4996361;28;20042;-66
2022/02/22 01:26:50;;;;;;;0.90;0.60;;;20.70;44.50;;;;;;5009009;28;20046;-66
2022/02/22 01:29:16;;;;;;;1.25;0.50;;;20.70;44.60;;;;;;4994786;28;20038;-66
2022/02/22 01:31:42;;;;;;;0.60;0.43;;;20.60;44.50;;;;;;4993794;28;20052;-65
2022/02/22 01:34:07;;;;;;;0.88;0.57;;;20.60;44.50;;;;;;5007272;28;20033;-68
2022/02/22 01:36:33;;;;;;;0.65;0.47;;;20.60;44.50;;;;;;4996327;28;20030;-65
2022/02/22 01:39:00;;;;;;;0.88;0.50;;;20.60;44.50;;;;;;4995230;28;20091;-68
2022/02/22 01:41:27;;;;;;;0.65;0.50;;;20.60;44.50;;;;;;4995598;28;20340;-66
2022/02/22 01:43:53;;;;;;;0.77;0.40;;;20.60;44.50;;;;;;4996133;28;20112;-65
2022/02/22 01:46:18;;;;;;;1.42;0.60;;;20.60;44.60;;;;;;4994003;28;20128;-65
2022/02/22 01:48:44;;;;;;;0.80;0.50;;;20.60;44.60;;;;;;4994791;28;20034;-65
2022/02/22 01:51:10;;;;;;;0.80;0.57;;;20.60;44.60;;;;;;5009945;28;20037;-65
2022/02/22 01:53:35;;;;;;;0.40;0.40;;;20.60;44.60;;;;;;4995278;28;20054;-68
2022/02/22 01:56:02;;;;;;;0.70;0.45;;;20.60;44.60;;;;;;4995760;28;20050;-65
2022/02/22 01:58:29;;;;;;;0.80;0.47;;;20.60;44.60;;;;;;4995794;28;20109;-67
2022/02/22 02:00:55;;;;;;;0.95;0.50;;;20.50;44.60;;;;;;4994841;28;20094;-68
2022/02/22 02:03:21;;;;;;;0.57;0.40;;;20.50;44.60;;;;;;4997067;28;20146;-68
2022/02/22 02:05:48;;;;;;;0.70;0.60;;;20.60;44.60;;;;;;5000282;28;20053;-66
2022/02/22 02:08:14;;;;;;;0.68;0.50;;;20.50;44.60;;;;;;4999558;28;20905;-65
2022/02/22 02:10:40;;;;;;;0.60;0.50;;;20.50;44.60;;;;;;5000377;28;20454;-68
2022/02/22 02:13:06;;;;;;;1.30;0.65;;;20.50;44.60;;;;;;4999866;28;20367;-68
2022/02/22 02:15:31;;;;;;;0.80;0.50;;;20.50;44.60;;;;;;5013537;28;20053;-64
2022/02/22 02:17:57;;;;;;;0.60;0.50;;;20.50;44.60;;;;;;4997637;28;20179;-66
2022/02/22 02:20:23;;;;;;;0.73;0.40;;;20.50;44.60;;;;;;4998509;28;20034;-65
2022/02/22 02:22:49;;;;;;;0.60;0.43;;;20.50;44.60;;;;;;4998977;28;20513;-66
2022/02/22 02:25:15;;;;;;;0.52;0.43;;;20.50;44.60;;;;;;4999307;28;20116;-64
2022/02/22 02:27:42;;;;;;;1.65;0.57;;;20.50;44.60;;;;;;4999329;28;20045;-66
2022/02/22 02:30:09;;;;;;;0.70;0.40;;;20.40;44.60;;;;;;4996124;28;20475;-67
2022/02/22 02:32:36;;;;;;;0.32;0.32;;;20.40;44.60;;;;;;5012713;28;20037;-67
2022/02/22 02:35:02;;;;;;;0.40;0.32;;;20.50;44.60;;;;;;5013018;28;20720;-66
2022/02/22 02:37:28;;;;;;;0.80;0.43;;;20.40;44.60;;;;;;5014786;28;20550;-65
2022/02/22 02:39:54;;;;;;;0.60;0.50;;;20.40;44.60;;;;;;4997754;28;20076;-66
2022/02/22 02:42:20;;;;;;;0.63;0.40;;;20.40;44.60;;;;;;4999683;28;20017;-65
2022/02/22 02:44:47;;;;;;;0.50;0.40;;;20.40;44.60;;;;;;4998125;28;20037;-69
2022/02/22 02:47:14;;;;;;;0.65;0.40;;;20.40;44.60;;;;;;4997542;28;20490;-68
2022/02/22 02:49:41;;;;;;;0.75;0.50;;;20.40;44.60;;;;;;4996941;28;20034;-65
2022/02/22 02:52:07;;;;;;;0.82;0.50;;;20.40;44.60;;;;;;4997556;28;20033;-68
2022/02/22 02:54:33;;;;;;;0.70;0.40;;;20.40;44.60;;;;;;4998568;28;20555;-68
2022/02/22 02:56:59;;;;;;;0.40;0.40;;;20.40;44.60;;;;;;4998388;28;20057;-68
2022/02/22 02:59:25;;;;;;;0.57;0.50;;;20.40;44.70;;;;;;4995948;28;20593;-68
2022/02/22 03:01:51;;;;;;;0.60;0.40;;;20.30;44.60;;;;;;4997573;28;20034;-64
2022/02/22 03:04:17;;;;;;;0.93;0.40;;;20.40;44.70;;;;;;5011674;28;20417;-66
2022/02/22 03:06:43;;;;;;;0.88;0.50;;;20.30;44.60;;;;;;4999484;28;20113;-67
2022/02/22 03:09:10;;;;;;;0.75;0.50;;;20.30;44.60;;;;;;4996780;28;20558;-67
2022/02/22 03:11:35;;;;;;;0.73;0.45;;;20.40;44.70;;;;;;5012154;28;20562;-65
2022/02/22 03:14:02;;;;;;;0.50;0.40;;;20.40;44.70;;;;;;4996994;28;20040;-66
2022/02/22 03:16:28;;;;;;;0.82;0.50;;;20.30;44.70;;;;;;4996216;28;20018;-65
2022/02/22 03:18:53;;;;;;;0.88;0.50;;;20.30;44.70;;;;;;4997403;28;20114;-67
2022/02/22 03:21:19;;;;;;;0.60;0.50;;;20.30;44.70;;;;;;5012569;28;20030;-65
2022/02/22 03:23:45;;;;;;;0.63;0.40;;;20.30;44.70;;;;;;4998645;28;20038;-68
2022/02/22 03:26:11;;;;;;;1.90;0.50;;;20.30;44.70;;;;;;5013498;28;20438;-67
2022/02/22 03:28:37;;;;;;;0.30;0.30;;;20.30;44.70;;;;;;4997183;28;20711;-65
2022/02/22 03:31:03;;;;;;;0.38;0.30;;;20.30;44.70;;;;;;4995527;28;20550;-65
2022/02/22 03:33:30;;;;;;;0.57;0.38;;;20.30;44.70;;;;;;4997344;28;20026;-68
2022/02/22 03:35:56;;;;;;;0.47;0.40;;;20.30;44.80;;;;;;4997103;28;20037;-65
2022/02/22 03:38:22;;;;;;;0.45;0.40;;;20.30;44.80;;;;;;4998883;28;20793;-67
2022/02/22 03:40:48;;;;;;;0.45;0.30;;;20.30;44.80;;;;;;4997402;28;20026;-65
2022/02/22 03:43:14;;;;;;;0.43;0.40;;;20.30;44.80;;;;;;5012345;28;20036;-67
2022/02/22 03:45:41;;;;;;;0.43;0.38;;;20.20;44.80;;;;;;4996927;28;20030;-65
2022/02/22 03:48:07;;;;;;;0.90;0.50;;;20.30;44.80;;;;;;4996617;28;20061;-65
2022/02/22 03:50:32;;;;;;;0.65;0.50;;;20.30;44.80;;;;;;4996490;28;20061;-65
2022/02/22 03:52:58;;;;;;;0.60;0.40;;;20.30;44.80;;;;;;4995601;28;20022;-68
2022/02/22 03:55:24;;;;;;;0.68;0.47;;;20.30;44.80;;;;;;4997687;28;20370;-67
2022/02/22 03:57:49;;;;;;;0.43;0.43;;;20.30;44.80;;;;;;4997485;28;20084;-66
2022/02/22 04:00:19;;;;;;;0.90;0.40;;;20.20;44.80;;;;;;5009333;28;20034;-66
2022/02/22 04:02:45;;;;;;;1.15;0.52;;;20.20;44.80;;;;;;4996150;28;20060;-66
2022/02/22 04:05:11;;;;;;;0.68;0.50;;;20.20;44.80;;;;;;4997319;28;20541;-64
2022/02/22 04:07:37;;;;;;;0.63;0.40;;;20.20;44.80;;;;;;4998371;28;20117;-66
2022/02/22 04:10:05;;;;;;;0.60;0.30;;;20.20;44.80;;;;;;4995071;28;20104;-68
2022/02/22 04:12:31;;;;;;;0.60;0.40;;;20.20;44.90;;;;;;4995447;28;20061;-68
2022/02/22 04:14:57;;;;;;;0.90;0.40;;;20.20;44.90;;;;;;4997513;28;20033;-67
2022/02/22 04:17:22;;;;;;;0.50;0.30;;;20.20;44.80;;;;;;4995184;28;20034;-66
2022/02/22 04:19:49;;;;;;;0.98;0.40;;;20.20;44.90;;;;;;5010441;28;20026;-65
2022/02/22 04:22:16;;;;;;;1.25;0.63;;;20.20;44.90;;;;;;4997154;28;20033;-67
2022/02/22 04:24:42;;;;;;;0.63;0.40;;;20.20;45.40;;;;;;5011004;28;20032;-68
2022/02/22 04:27:08;;;;;;;0.47;0.40;;;20.20;44.90;;;;;;4997430;28;20470;-65
2022/02/22 04:29:33;;;;;;;1.08;0.40;;;20.20;44.90;;;;;;4995488;28;20053;-66
2022/02/22 04:32:01;;;;;;;0.40;0.40;;;20.20;44.90;;;;;;4994574;28;20498;-66
2022/02/22 04:34:26;;;;;;;0.68;0.40;;;20.20;44.90;;;;;;4995528;28;20033;-66
2022/02/22 04:36:52;;;;;;;0.30;0.30;;;20.20;44.90;;;;;;4996904;28;20894;-65
2022/02/22 04:39:18;;;;;;;0.80;0.40;;;20.20;44.90;;;;;;4996268;28;20350;-66
2022/02/22 04:41:43;;;;;;;0.40;0.30;;;20.10;44.80;;;;;;5011103;28;20038;-67
2022/02/22 04:44:09;;;;;;;0.38;0.32;;;20.20;44.90;;;;;;4995676;28;20037;-67
2022/02/22 04:46:35;;;;;;;0.38;0.38;;;20.20;44.90;;;;;;4995455;28;20034;-67
2022/02/22 04:49:00;;;;;;;0.40;0.40;;;20.10;44.90;;;;;;4994434;28;20118;-66
2022/02/22 04:51:26;;;;;;;1.25;0.70;;;20.10;44.90;;;;;;4996715;28;20125;-68
2022/02/22 04:53:52;;;;;;;0.60;0.40;;;20.10;44.90;;;;;;4996634;28;20034;-67
2022/02/22 04:56:18;;;;;;;0.75;0.50;;;20.10;44.90;;;;;;4997969;28;20072;-66
2022/02/22 04:58:43;;;;;;;0.40;0.40;;;20.10;44.90;;;;;;4997423;28;20029;-65
2022/02/22 05:01:09;;;;;;;0.32;0.30;;;20.10;45.00;;;;;;4994974;28;20030;-68
2022/02/22 05:03:35;;;;;;;0.43;0.40;;;20.10;45.00;;;;;;4996202;28;20117;-69
2022/02/22 05:06:01;;;;;;;0.70;0.40;;;20.10;45.00;;;;;;4996947;28;20022;-67
2022/02/22 05:08:26;;;;;;;0.47;0.30;;;20.10;45.00;;;;;;4997299;28;20549;-68
2022/02/22 05:10:53;;;;;;;0.30;0.30;;;20.10;45.00;;;;;;4995238;28;20044;-66
2022/02/22 05:13:18;;;;;;;0.65;0.30;;;20.10;45.00;;;;;;4996281;28;20022;-66
2022/02/22 05:15:44;;;;;;;0.50;0.40;;;20.10;45.00;;;;;;4995047;28;20022;-67
2022/02/22 05:18:09;;;;;;;0.28;0.28;;;20.10;45.00;;;;;;4995583;28;20425;-65
2022/02/22 05:20:35;;;;;;;0.43;0.40;;;20.10;45.60;;;;;;4995643;28;20034;-69
2022/02/22 05:23:01;;;;;;;0.60;0.40;;;20.10;45.10;;;;;;4996460;28;20503;-65
2022/02/22 05:25:27;;;;;;;0.43;0.35;;;20.10;45.10;;;;;;4996619;28;20043;-67
2022/02/22 05:27:52;;;;;;;0.68;0.30;;;20.10;45.10;;;;;;5000233;28;20483;-65
2022/02/22 05:30:18;;;;;;;0.40;0.40;;;20.00;45.10;;;;;;4994291;28;20034;-68
2022/02/22 05:32:44;;;;;;;0.40;0.30;;;20.00;45.10;;;;;;4999912;28;20033;-68
2022/02/22 05:35:12;;;;;;;0.65;0.40;;;20.10;45.20;;;;;;4995199;28;20030;-67
2022/02/22 05:37:38;;;;;;;0.90;0.50;;;20.10;45.10;;;;;;4997592;28;20425;-65
2022/02/22 05:40:05;;;;;;;0.73;0.40;;;20.00;45.10;;;;;;4996233;28;20640;-64
2022/02/22 05:42:31;;;;;;;0.40;0.30;;;20.00;45.10;;;;;;4996826;28;20131;-65
2022/02/22 05:44:57;;;;;;;0.30;0.30;;;20.00;45.10;;;;;;4995868;28;20157;-65
2022/02/22 05:47:22;;;;;;;0.50;0.50;;;20.00;45.10;;;;;;4996714;28;20031;-68
2022/02/22 05:49:49;;;;;;;0.40;0.40;;;20.00;45.10;;;;;;4995427;28;20069;-68
2022/02/22 05:52:19;;;;;;;0.63;0.40;;;20.00;45.10;;;;;;4995500;28;20034;-65
2022/02/22 05:54:46;;;;;;;0.90;0.50;;;20.00;45.10;;;;;;4996383;28;20039;-67
2022/02/22 05:57:12;;;;;;;0.65;0.40;;;20.00;45.10;;;;;;4996733;28;20030;-65
2022/02/22 05:59:37;;;;;;;0.63;0.40;;;20.00;45.10;;;;;;4994244;28;20029;-68
2022/02/22 06:02:04;;;;;;;0.60;0.28;;;20.00;45.00;;;;;;4995586;28;20038;-65
2022/02/22 06:04:29;;;;;;;0.45;0.30;;;20.00;45.00;;;;;;4994708;28;20032;-65
2022/02/22 06:06:55;;;;;;;0.43;0.30;;;20.00;45.10;;;;;;5011506;28;20589;-65
2022/02/22 06:09:20;;;;;;;0.75;0.60;;;20.00;45.10;;;;;;4995779;28;20029;-67
2022/02/22 06:11:46;;;;;;;0.63;0.30;;;20.00;45.00;;;;;;4996050;28;20483;-65
2022/02/22 06:14:12;;;;;;;0.65;0.40;;;20.00;45.00;;;;;;4995506;28;20389;-66
2022/02/22 06:16:38;;;;;;;1.08;0.45;;;20.00;45.00;;;;;;4995044;28;20550;-66
2022/02/22 06:19:04;;;;;;;0.52;0.40;;;20.00;45.00;;;;;;4995583;28;20066;-66
2022/02/22 06:21:29;;;;;;;1.17;0.57;;;20.00;45.00;;;;;;4995922;28;20080;-65
2022/02/22 06:23:55;;;;;;;1.35;0.60;;;20.00;45.00;;;;;;4996927;28;20042;-66
2022/02/22 06:26:21;;;;;;;1.63;0.60;;;20.00;44.90;;;;;;4996580;28;20057;-64
2022/02/22 06:28:50;;;;;;;1.38;0.55;;;20.00;45.00;;;;;;5000830;28;20068;-69
2022/02/22 06:31:16;;;;;;;1.88;0.80;;;19.90;45.00;;;;;;4993423;28;20065;-68
2022/02/22 06:33:42;;;;;;;1.70;0.68;;;19.90;45.00;;;;;;4994981;28;20349;-67
2022/02/22 06:36:08;;;;;;;2.25;0.75;;;19.90;45.00;;;;;;5000806;28;20414;-68
2022/02/22 06:38:34;;;;;;;1.40;0.60;;;20.00;45.10;;;;;;4994833;28;20061;-66
2022/02/22 06:40:59;;;;;;;1.58;0.60;;;20.00;45.10;;;;;;4992455;28;20030;-64
2022/02/22 06:43:25;;;;;;;3.00;0.95;;;20.00;45.10;;;;;;4993594;28;20037;-67
2022/02/22 06:45:51;;;;;;;2.90;1.00;;;20.00;46.00;;;;;;4992689;28;20583;-65
2022/02/22 06:48:16;;;;;;;1.92;0.82;;;20.20;46.70;;;;;;4999952;28;20026;-64
2022/02/22 06:50:44;;;;;;;1.70;0.75;;;20.40;45.90;;;;;;5001156;28;20118;-68
2022/02/22 06:53:12;;;;;;;1.65;0.80;;;20.60;45.60;;;;;;5001375;28;20030;-66
2022/02/22 06:55:39;;;;;;;2.92;0.98;;;20.90;45.30;;;;;;5000546;28;20031;-67
2022/02/22 06:58:07;;;;;;;2.38;1.00;;;21.10;45.00;;;;;;5002799;28;20080;-66
2022/02/22 07:00:34;;;;;;;2.28;1.00;;;21.20;44.70;;;;;;5001730;28;20057;-66
2022/02/22 07:03:00;;;;;;;0.70;0.60;;;21.40;44.50;;;;;;5000372;28;20473;-67
2022/02/22 07:05:26;;;;;;;2.95;0.88;;;21.40;44.90;;;;;;5003014;28;20076;-65
2022/02/22 07:07:52;;;;;;;2.72;0.90;;;21.40;44.50;;;;;;5000774;28;20077;-64
2022/02/22 07:10:18;;;;;;;2.10;0.90;;;21.30;45.40;;;;;;4998839;28;20026;-68
2022/02/22 07:12:44;;;;;;;2.70;1.10;;;21.40;45.00;;;;;;5000892;28;20030;-65
2022/02/22 07:15:11;;;;;;;2.05;0.98;;;21.60;44.60;;;;;;5002185;28;20485;-66
2022/02/22 07:17:50;;;;;;;2.45;1.08;;;21.90;44.30;;;;;;4998508;28;20531;-68
2022/02/22 07:20:18;;;;;;;2.92;0.85;;;22.00;43.90;;;;;;4998399;28;20104;-66
2022/02/22 07:22:44;;;;;;;1.98;0.82;;;22.20;43.80;;;;;;4997808;28;20030;-68
2022/02/22 07:25:12;;;;;;;2.75;0.80;;;22.40;43.80;;;;;;5002557;28;20154;-67
2022/02/22 07:27:38;;;;;;;2.22;1.05;;;22.50;43.40;;;;;;5001269;28;20380;-68
2022/02/22 07:30:05;;;;;;;1.70;0.77;;;22.70;43.30;;;;;;4999785;28;20029;-69
2022/02/22 07:32:30;;;;;;;1.70;0.80;;;22.80;42.90;;;;;;5001065;28;20591;-65
2022/02/22 07:34:56;;;;;;;1.10;0.60;;;22.90;42.80;;;;;;4999604;28;20137;-65
2022/02/22 07:37:22;;;;;;;0.90;0.65;;;23.00;42.70;;;;;;4999108;28;20034;-68
2022/02/22 07:39:47;;;;;;;1.05;0.43;;;22.80;42.50;;;;;;5000656;28;20037;-68
2022/02/22 07:42:13;;;;;;;1.95;0.65;;;22.70;42.50;;;;;;4998053;28;20030;-67
2022/02/22 07:44:38;;;;;;;1.30;0.60;;;22.60;42.60;;;;;;5012128;28;20030;-65
2022/02/22 07:47:04;;;;;;;1.42;0.80;;;22.50;43.00;;;;;;5012168;28;20121;-67
2022/02/22 07:49:30;;;;;;;1.25;0.65;;;22.50;43.40;;;;;;4999912;28;20096;-68
2022/02/22 07:51:55;;;;;;;1.27;0.60;;;22.50;43.60;;;;;;5001463;28;20026;-65
2022/02/22 07:54:21;;;;;;;0.93;0.50;;;22.40;43.60;;;;;;4998528;28;20461;-67
2022/02/22 07:56:47;;;;;;;1.15;0.60;;;22.40;43.30;;;;;;5013887;28;20030;-67
2022/02/22 07:59:12;;;;;;;1.27;0.70;;;22.40;43.80;;;;;;5012794;28;20046;-68
2022/02/22 08:01:38;;;;;;;1.50;0.70;;;22.40;43.20;;;;;;4997619;28;20113;-68
2022/02/22 08:04:04;;;;;;;1.10;0.60;;;22.40;43.20;;;;;;4997469;28;20105;-67
2022/02/22 08:06:29;;;;;;;1.60;0.80;;;22.40;43.30;;;;;;4999533;28;20475;-66
2022/02/22 08:08:55;;;;;;;2.10;0.90;;;22.40;43.30;;;;;;5002563;28;20038;-66
2022/02/22 08:11:21;;;;;;;1.35;0.60;;;22.40;43.30;;;;;;4996958;28;20107;-69
2022/02/22 08:13:47;;;;;;;1.70;0.73;;;22.40;43.30;;;;;;4997710;28;20097;-67
2022/02/22 08:16:12;;;;;;;1.75;0.70;;;22.40;43.30;;;;;;4997309;28;20031;-67
2022/02/22 08:18:38;;;;;;;1.48;0.77;;;22.40;43.30;;;;;;5000049;28;20137;-64
2022/02/22 08:21:04;;;;;;;2.20;0.80;;;22.40;43.20;;;;;;4998930;28;20724;-68
2022/02/22 08:23:31;;;;;;;1.50;0.77;;;22.40;43.10;;;;;;4997167;28;20390;-68
2022/02/22 08:26:03;;;;;;;1.88;0.82;;;22.40;43.10;;;;;;4997662;28;20430;-68
2022/02/22 08:28:29;;;;;;;1.45;0.60;;;22.40;43.10;;;;;;4997631;28;20045;-68
2022/02/22 08:30:55;;;;;;;1.05;0.60;;;22.50;43.10;;;;;;4998485;28;20030;-67
2022/02/22 08:33:21;;;;;;;1.20;0.60;;;22.40;43.00;;;;;;4998934;28;20084;-68
2022/02/22 08:35:47;;;;;;;0.93;0.55;;;22.50;43.10;;;;;;5004569;28;20056;-66
2022/02/22 08:38:13;;;;;;;1.40;0.70;;;22.50;43.00;;;;;;4996524;28;20034;-68
2022/02/22 08:40:38;;;;;;;1.48;0.70;;;22.50;43.00;;;;;;4996496;28;20030;-69
2022/02/22 08:43:04;;;;;;;1.50;0.68;;;22.50;43.00;;;;;;4998212;28;20030;-66
2022/02/22 08:45:30;;;;;;;1.25;0.57;;;22.50;42.90;;;;;;4995252;28;20040;-64
2022/02/22 08:47:55;;;;;;;1.52;0.68;;;22.50;42.90;;;;;;5012308;28;20128;-68
2022/02/22 08:50:22;;;;;;;1.35;0.70;;;22.50;42.90;;;;;;4997172;28;20367;-68
2022/02/22 08:52:48;;;;;;;1.80;0.70;;;22.50;42.80;;;;;;4998896;28;20022;-68
2022/02/22 08:55:14;;;;;;;0.93;0.57;;;22.50;42.80;;;;;;4998015;28;20068;-69
2022/02/22 08:57:39;;;;;;;1.65;0.68;;;22.50;43.30;;;;;;4998901;28;20026;-65
2022/02/22 09:00:10;;;;;;;1.67;0.70;;;22.50;42.80;;;;;;4997213;28;20034;-67
2022/02/22 09:02:40;;;;;;;0.82;0.50;;;22.50;42.80;;;;;;4997793;28;20558;-67
2022/02/22 09:05:07;;;;;;;1.50;0.68;;;22.50;42.80;;;;;;4999885;28;20034;-68
2022/02/22 09:07:33;;;;;;;1.27;0.70;;;22.50;43.40;;;;;;4998225;28;20030;-68
2022/02/22 09:09:58;;;;;;;0.68;0.50;;;22.50;43.20;;;;;;5013482;28;20084;-68
2022/02/22 09:12:24;;;;;;;1.33;0.70;;;22.50;43.10;;;;;;4996453;28;20113;-67
2022/02/22 09:14:50;;;;;;;1.27;0.50;;;22.50;43.10;;;;;;4995361;28;20176;-66
2022/02/22 09:17:16;;;;;;;0.90;0.60;;;22.50;43.20;;;;;;4997381;28;20437;-69
2022/02/22 09:19:41;;;;;;;0.63;0.45;;;22.50;43.20;;;;;;4996344;28;20418;-68
2022/02/22 09:22:08;;;;;;;0.82;0.60;;;22.60;43.40;;;;;;5015258;28;20119;-68
2022/02/22 09:24:34;;;;;;;1.08;0.60;;;22.60;43.40;;;;;;4997117;28;20038;-67
2022/02/22 09:26:59;;;;;;;1.30;0.65;;;22.60;43.20;;;;;;5002460;28;20136;-68
2022/02/22 09:29:25;;;;;;;1.42;0.70;;;22.60;43.20;;;;;;4998276;28;20132;-68
2022/02/22 09:31:51;;;;;;;0.50;0.40;;;22.60;43.40;;;;;;5000441;28;20069;-66
2022/02/22 09:34:17;;;;;;;0.77;0.52;;;22.60;43.20;;;;;;4996115;28;20435;-63
2022/02/22 09:36:42;;;;;;;0.90;0.60;;;22.60;43.20;;;;;;5001564;28;20061;-67
2022/02/22 09:39:08;;;;;;;0.98;0.57;;;22.60;43.20;;;;;;5000153;28;20293;-67
2022/02/22 09:41:37;;;;;;;1.35;0.70;;;22.60;43.20;;;;;;5002428;28;20036;-67
2022/02/22 09:44:03;;;;;;;1.25;0.57;;;22.60;43.10;;;;;;5012702;28;20119;-68
2022/02/22 09:46:32;;;;;;;1.08;0.50;;;22.60;43.00;;;;;;5010871;28;20058;-67
2022/02/22 09:48:58;;;;;;;;;;;22.60;43.10;;;;;;5002502;28;20030;-67
2022/02/22 09:51:24;;;;;;;1.05;0.60;;;22.60;43.00;;;;;;4998895;28;19913;-66
2022/02/22 09:53:50;;;;;;;0.70;0.55;;;22.60;43.10;;;;;;4998996;28;20091;-67
2022/02/22 09:56:16;;;;;;;0.70;0.50;;;22.70;43.10;;;;;;5001271;28;20284;-67
2022/02/22 09:58:41;;;;;;;0.68;0.60;;;22.70;43.10;;;;;;4996944;28;20033;-67
2022/02/22 10:01:07;;;;;;;0.65;0.40;;;22.70;43.30;;;;;;4998958;28;20176;-67
2022/02/22 10:03:32;;;;;;;0.90;0.50;;;22.70;43.30;;;;;;4999601;28;21074;-68
2022/02/22 10:06:00;;;;;;;1.63;0.80;;;22.70;43.00;;;;;;4997909;28;20101;-67
2022/02/22 10:08:28;;;;;;;0.70;0.50;;;22.70;43.00;;;;;;5001128;28;20461;-65
2022/02/22 10:11:03;;;;;;;0.95;0.60;;;22.70;43.00;;;;;;4998551;28;20049;-68
2022/02/22 10:13:29;;;;;;;0.80;0.45;;;22.80;43.10;;;;;;4997252;28;20029;-66
2022/02/22 10:15:55;;;;;;;0.90;0.50;;;22.80;43.10;;;;;;4994424;28;20121;-69
2022/02/22 10:18:21;;;;;;;1.20;0.60;;;22.80;43.00;;;;;;4995808;28;20080;-67
2022/02/22 10:20:48;;;;;;;1.33;0.60;;;22.80;43.10;;;;;;5014947;28;20033;-68
2022/02/22 10:23:14;;;;;;;0.95;0.50;;;22.80;43.00;;;;;;4998758;28;20022;-68
2022/02/22 10:25:40;;;;;;;1.25;0.60;;;22.80;43.00;;;;;;4998282;28;20062;-67
2022/02/22 10:28:07;;;;;;;1.52;0.70;;;22.80;43.00;;;;;;5002531;28;20037;-67
2022/02/22 10:30:39;;;;;;;1.05;0.60;;;22.80;42.90;;;;;;4997784;28;20057;-68
2022/02/22 10:33:20;;;;;;;0.70;0.60;;;22.80;42.90;;;;;;5012569;28;20117;-66
2022/02/22 10:35:48;;;;;;;1.27;0.70;;;22.80;43.10;;;;;;4998436;28;20033;-69
2022/02/22 10:38:23;;;;;;;0.97;0.60;;;22.80;42.80;;;;;;4999132;28;20029;-69
2022/02/22 10:41:03;;;;;;;0.88;0.63;;;22.80;42.70;;;;;;5003388;28;20143;-68
2022/02/22 10:43:37;;;;;;;0.75;0.50;;;22.90;42.80;;;;;;5000941;28;20026;-68
2022/02/22 10:46:08;;;;;;;0.85;0.60;;;22.80;42.70;;;;;;4997126;28;20037;-67
2022/02/22 10:48:35;;;;;;;0.70;0.40;;;22.90;42.80;;;;;;5011649;28;20603;-69
2022/02/22 10:51:04;;;;;;;1.15;0.60;;;22.90;42.70;;;;;;4998684;28;20030;-68
2022/02/22 10:53:31;;;;;;;2.53;0.80;;;22.90;43.20;;;;;;4998034;28;20030;-68
2022/02/22 10:55:58;;;;;;;2.30;0.80;;;22.90;42.70;;;;;;4997370;28;20644;-70
2022/02/22 10:58:25;;;;;;;1.65;1.00;;;22.90;42.30;;;;;;5013108;28;20224;-70
2022/02/22 11:00:52;;;;;;;1.75;0.90;;;22.90;42.10;;;;;;4995880;28;20585;-70
2022/02/22 11:03:17;;;;;;;1.17;0.70;;;22.90;42.10;;;;;;4997534;28;20034;-69
2022/02/22 11:05:43;;;;;;;2.50;0.90;;;22.90;42.00;;;;;;5012213;28;20034;-68
2022/02/22 11:08:09;;;;;;;2.08;0.60;;;22.90;42.10;;;;;;4998720;28;20064;-68
2022/02/22 11:10:37;;;;;;;1.92;0.80;;;22.90;42.10;;;;;;4998909;28;20117;-69
2022/02/22 11:13:03;;;;;;;1.42;0.70;;;22.90;42.00;;;;;;4996827;28;20026;-67
2022/02/22 11:15:35;;;;;;;1.67;0.77;;;22.90;42.10;;;;;;4995742;28;20030;-70
2022/02/22 11:18:14;;;;;;;1.05;0.60;;;22.80;42.00;;;;;;4998328;28;20513;-68
2022/02/22 11:20:41;;;;;;;;;;;22.80;42.10;;;;;;5012968;28;20022;-69
2022/02/22 11:23:09;;;;;;;1.60;0.70;;;22.80;42.10;;;;;;4999268;28;19909;-69
2022/02/22 11:25:36;;;;;;;1.73;1.00;;;22.80;42.10;;;;;;4995919;28;20026;-72
2022/02/22 11:28:06;;;;;;;1.20;0.70;;;22.80;42.20;;;;;;4998662;28;20045;-72
2022/02/22 11:30:34;;;;;;;1.05;0.65;;;22.70;42.20;;;;;;4997374;28;20074;-67
2022/02/22 11:33:20;;;;;;;1.88;0.70;;;22.70;42.30;;;;;;4997748;28;20027;-67
2022/02/22 11:35:48;;;;;;;0.98;0.50;;;22.70;42.70;;;;;;5014141;28;20180;-68
2022/02/22 11:38:15;;;;;;;1.57;0.60;;;22.70;42.90;;;;;;4999386;28;20026;-68
2022/02/22 11:40:41;;;;;;;0.88;0.60;;;22.70;43.00;;;;;;4999253;28;20018;-67
2022/02/22 11:43:16;;;;;;;0.85;0.55;;;22.70;42.90;;;;;;4999192;28;20405;-66
2022/02/22 11:45:47;;;;;;;0.88;0.57;;;22.70;43.10;;;;;;5012204;28;20096;-68
2022/02/22 11:48:25;;;;;;;0.88;0.50;;;22.70;43.00;;;;;;5003380;28;20045;-70
2022/02/22 11:50:59;;;;;;;0.73;0.60;;;22.70;43.10;;;;;;4997110;28;20092;-68
2022/02/22 11:53:27;;;;;;;1.05;0.60;;;22.80;43.10;;;;;;4998495;28;20028;-68
2022/02/22 11:55:54;;;;;;;0.95;0.60;;;22.80;43.10;;;;;;4999161;28;20120;-66
2022/02/22 11:58:28;;;;;;;0.68;0.50;;;22.80;43.10;;;;;;4998424;28;20124;-64
2022/02/22 12:01:00;;;;;;;1.27;0.60;;;22.80;43.60;;;;;;4997066;28;20042;-67
2022/02/22 12:03:27;;;;;;;0.82;0.50;;;22.80;43.60;;;;;;5013434;28;20114;-69
2022/02/22 12:05:57;;;;;;;1.40;0.60;;;22.80;43.10;;;;;;4997262;28;20038;-64
2022/02/22 12:08:25;;;;;;;0.80;0.50;;;22.80;43.20;;;;;;4999685;28;20350;-66
2022/02/22 12:10:57;;;;;;;1.70;0.50;;;22.80;43.20;;;;;;4997719;28;20096;-67
2022/02/22 12:13:40;;;;;;;1.10;0.60;;;22.90;43.10;;;;;;4999403;28;20430;-68
2022/02/22 12:16:20;;;;;;;1.50;0.60;;;22.90;43.20;;;;;;4997803;28;20045;-65
2022/02/22 12:18:49;;;;;;;1.13;0.60;;;22.90;43.10;;;;;;4998500;28;20060;-68
2022/02/22 12:21:17;;;;;;;1.52;0.60;;;22.90;43.10;;;;;;4998637;28;20037;-69
2022/02/22 12:23:43;;;;;;;1.15;0.63;;;22.90;43.40;;;;;;5000172;28;20417;-67
2022/02/22 12:26:12;;;;;;;1.02;0.60;;;23.00;43.10;;;;;;4997778;28;20037;-64
2022/02/22 12:28:52;;;;;;;1.92;0.60;;;23.00;42.90;;;;;;4998320;28;20037;-68
2022/02/22 12:31:34;;;;;;;1.65;0.75;;;23.00;42.80;;;;;;4991940;28;20042;-68
2022/02/22 12:34:21;;;;;;;1.60;0.70;;;23.00;42.80;;;;;;4994587;28;20105;-69
2022/02/22 12:36:51;;;;;;;1.17;0.70;;;23.00;42.80;;;;;;4995678;28;20044;-67
2022/02/22 12:39:20;;;;;;;1.40;0.80;;;23.00;42.90;;;;;;4995968;28;20027;-66
2022/02/22 12:41:49;;;;;;;1.52;0.63;;;23.00;42.90;;;;;;5010910;28;20041;-67
2022/02/22 12:44:18;;;;;;;1.10;0.60;;;23.00;42.90;;;;;;5011301;28;20386;-69
2022/02/22 12:46:45;;;;;;;1.33;0.65;;;23.00;42.80;;;;;;4994425;28;20535;-67